createdAt,value
2018-12-27T00:01:48.336Z,13.97
2018-12-27T00:04:19.471Z,13.10
2018-12-27T00:06:50.064Z,14.00
2018-12-27T00:09:41.862Z,13.53
2018-12-27T00:12:32.587Z,15.60
2018-12-27T00:15:02.961Z,14.23
2018-12-27T00:17:34.104Z,14.00
2018-12-27T00:20:04.506Z,12.83
2018-12-27T00:22:35.647Z,14.67
2018-12-27T00:25:06.038Z,13.70
2018-12-27T00:27:36.450Z,13.80
2018-12-27T00:30:06.833Z,12.50
2018-12-27T00:32:37.222Z,13.20
2018-12-27T00:35:07.634Z,13.53
2018-12-27T00:37:38.009Z,13.03
2018-12-27T00:40:08.379Z,12.57
2018-12-27T00:42:39.556Z,13.27
2018-12-27T00:45:15.054Z,12.37
2018-12-27T00:47:46.293Z,12.73
2018-12-27T00:50:16.786Z,13.10
2018-12-27T00:53:05.519Z,12.93
2018-12-27T00:55:35.833Z,12.73
2018-12-27T00:58:06.211Z,13.50
2018-12-27T01:00:36.678Z,12.27
2018-12-27T01:03:11.273Z,12.90
2018-12-27T01:05:40.180Z,13.07
2018-12-27T01:08:10.824Z,11.93
2018-12-27T01:10:41.980Z,12.30
2018-12-27T01:13:12.370Z,11.23
2018-12-27T01:15:42.795Z,12.70
2018-12-27T01:18:13.360Z,12.20
2018-12-27T01:20:44.518Z,12.23
2018-12-27T01:23:14.917Z,11.97
2018-12-27T01:25:45.288Z,12.50
2018-12-27T01:28:18.750Z,12.00
2018-12-27T01:30:49.918Z,10.87
2018-12-27T01:33:20.294Z,12.17
2018-12-27T01:35:50.676Z,11.67
2018-12-27T01:38:21.079Z,12.70
2018-12-27T01:40:52.222Z,11.17
2018-12-27T01:43:22.652Z,11.20
2018-12-27T01:45:52.992Z,11.10
2018-12-27T01:48:23.320Z,11.97
2018-12-27T01:50:53.702Z,12.33
2018-12-27T01:53:24.109Z,11.90
2018-12-27T01:55:54.787Z,11.97
2018-12-27T01:58:25.879Z,10.80
2018-12-27T02:00:56.653Z,11.70
2018-12-27T02:03:28.019Z,11.00
2018-12-27T02:05:58.392Z,12.47
2018-12-27T02:08:28.802Z,12.43
2018-12-27T02:10:59.179Z,12.57
2018-12-27T02:13:30.332Z,11.97
2018-12-27T02:16:00.751Z,11.83
2018-12-27T02:18:31.899Z,11.13
2018-12-27T02:21:03.223Z,11.10
2018-12-27T02:23:33.632Z,12.37
2018-12-27T02:26:23.377Z,11.33
2018-12-27T02:28:53.991Z,11.97
2018-12-27T02:31:24.369Z,12.70
2018-12-27T02:33:54.747Z,12.03
2018-12-27T02:36:25.866Z,12.30
2018-12-27T02:41:38.424Z,11.27
2018-12-27T02:44:10.842Z,13.17
2018-12-27T02:46:43.290Z,12.27
2018-12-27T02:49:13.676Z,12.03
2018-12-27T02:51:44.821Z,12.00
2018-12-27T02:54:15.996Z,11.67
2018-12-27T02:56:46.316Z,11.20
2018-12-27T02:59:16.711Z,12.17
2018-12-27T03:01:47.373Z,12.00
2018-12-27T03:04:17.741Z,11.90
2018-12-27T03:06:54.282Z,12.27
2018-12-27T03:09:24.668Z,12.20
2018-12-27T03:11:55.226Z,11.07
2018-12-27T03:14:26.786Z,12.03
2018-12-27T03:16:57.166Z,12.33
2018-12-27T03:19:27.870Z,12.17
2018-12-27T03:22:03.091Z,11.53
2018-12-27T03:24:33.472Z,11.43
2018-12-27T03:27:03.859Z,11.80
2018-12-27T03:29:38.561Z,11.23
2018-12-27T03:32:08.926Z,11.87
2018-12-27T03:34:40.030Z,12.87
2018-12-27T03:37:10.426Z,11.47
2018-12-27T03:39:40.808Z,11.67
2018-12-27T03:42:13.228Z,11.47
2018-12-27T03:44:43.877Z,11.60
2018-12-27T03:47:14.964Z,12.10
2018-12-27T03:49:45.355Z,10.60
2018-12-27T03:52:15.759Z,9.63
2018-12-27T03:54:46.082Z,11.60
2018-12-27T03:57:16.455Z,11.53
2018-12-27T03:59:47.199Z,11.10
2018-12-27T04:02:18.591Z,10.70
2018-12-27T04:04:48.981Z,11.30
2018-12-27T04:07:21.414Z,9.87
2018-12-27T04:09:51.796Z,11.73
2018-12-27T04:12:22.169Z,10.23
2018-12-27T04:14:54.433Z,9.13
2018-12-27T04:17:25.780Z,10.07
2018-12-27T04:19:57.361Z,10.27
2018-12-27T04:22:27.754Z,10.60
2018-12-27T04:24:58.896Z,10.67
2018-12-27T04:27:29.989Z,11.00
2018-12-27T04:30:00.388Z,9.93
2018-12-27T04:32:31.540Z,10.43
2018-12-27T04:35:01.931Z,10.77
2018-12-27T04:37:32.324Z,9.83
2018-12-27T04:40:24.891Z,10.83
2018-12-27T04:42:55.288Z,10.57
2018-12-27T04:45:27.720Z,9.40
2018-12-27T04:47:58.090Z,10.77
2018-12-27T04:50:34.629Z,10.13
2018-12-27T04:53:05.775Z,10.23
2018-12-27T04:55:36.154Z,9.87
2018-12-27T04:58:06.558Z,10.43
2018-12-27T05:00:44.264Z,10.33
2018-12-27T05:03:34.791Z,10.77
2018-12-27T05:06:05.442Z,9.50
2018-12-27T05:08:36.538Z,10.10
2018-12-27T05:11:28.359Z,10.40
2018-12-27T05:13:59.763Z,10.53
2018-12-27T05:16:30.843Z,9.93
2018-12-27T05:19:01.241Z,10.37
2018-12-27T05:21:31.648Z,10.60
2018-12-27T05:24:03.034Z,11.23
2018-12-27T05:26:33.445Z,10.60
2018-12-27T05:29:03.836Z,9.73
2018-12-27T05:31:34.412Z,10.43
2018-12-27T05:34:04.816Z,9.80
2018-12-27T05:36:35.981Z,10.63
2018-12-27T05:39:06.359Z,11.00
2018-12-27T05:41:36.716Z,11.40
2018-12-27T05:44:08.067Z,10.90
2018-12-27T05:46:39.223Z,10.83
2018-12-27T05:49:10.345Z,10.57
2018-12-27T05:51:40.720Z,10.70
2018-12-27T05:54:11.097Z,11.07
2018-12-27T05:56:42.269Z,10.10
2018-12-27T05:59:12.647Z,10.50
2018-12-27T06:01:43.035Z,11.07
2018-12-27T06:04:13.639Z,11.33
2018-12-27T06:06:44.015Z,10.47
2018-12-27T06:09:17.062Z,10.97
2018-12-27T06:11:47.471Z,12.07
2018-12-27T06:14:18.620Z,11.30
2018-12-27T06:16:49.766Z,11.80
2018-12-27T06:19:20.927Z,11.37
2018-12-27T06:21:51.315Z,11.70
2018-12-27T06:24:21.691Z,10.67
2018-12-27T06:26:52.111Z,11.03
2018-12-27T06:29:22.490Z,10.13
2018-12-27T06:31:52.867Z,10.93
2018-12-27T06:34:23.977Z,9.83
2018-12-27T06:36:55.130Z,8.77
2018-12-27T06:39:26.269Z,10.10
2018-12-27T06:41:59.431Z,9.90
2018-12-27T06:44:28.513Z,9.17
2018-12-27T06:47:19.307Z,9.93
2018-12-27T06:49:52.756Z,9.40
2018-12-27T06:52:23.903Z,9.00
2018-12-27T06:54:54.483Z,8.83
2018-12-27T06:57:24.869Z,9.70
2018-12-27T06:59:57.037Z,9.80
2018-12-27T07:05:11.958Z,9.63
2018-12-27T07:07:42.561Z,9.63
2018-12-27T07:10:12.943Z,9.87
2018-12-27T07:12:43.335Z,10.13
2018-12-27T07:15:13.726Z,9.17
2018-12-27T07:17:44.862Z,8.77
2018-12-27T07:20:16.547Z,10.13
2018-12-27T07:22:46.959Z,10.63
2018-12-27T07:25:18.109Z,9.30
2018-12-27T07:27:49.247Z,9.73
2018-12-27T07:30:20.421Z,8.37
2018-12-27T07:32:50.806Z,9.20
2018-12-27T07:35:21.950Z,7.50
2018-12-27T07:37:52.599Z,9.07
2018-12-27T07:40:22.986Z,8.10
2018-12-27T07:42:53.370Z,8.30
2018-12-27T07:45:23.767Z,8.80
2018-12-27T07:47:54.143Z,8.77
2018-12-27T07:50:24.531Z,9.23
2018-12-27T07:52:55.165Z,8.77
2018-12-27T07:55:25.793Z,9.10
2018-12-27T07:57:56.945Z,9.83
2018-12-27T08:00:27.336Z,8.50
2018-12-27T08:02:57.868Z,9.53
2018-12-27T08:05:28.240Z,8.73
2018-12-27T08:07:58.635Z,9.40
2018-12-27T08:10:29.793Z,8.50
2018-12-27T08:13:01.137Z,9.80
2018-12-27T08:15:32.498Z,9.00
2018-12-27T08:18:02.866Z,9.70
2018-12-27T08:20:33.244Z,10.87
2018-12-27T08:23:04.407Z,9.47
2018-12-27T08:25:34.785Z,8.83
2018-12-27T08:28:05.209Z,7.93
2018-12-27T08:30:36.599Z,7.83
2018-12-27T08:33:06.976Z,8.40
2018-12-27T08:35:37.289Z,8.10
2018-12-27T08:38:07.700Z,8.73
2018-12-27T08:40:41.146Z,9.00
2018-12-27T08:43:11.517Z,8.90
2018-12-27T08:45:41.863Z,10.77
2018-12-27T08:48:12.456Z,11.40
2018-12-27T08:50:42.823Z,9.87
2018-12-27T08:53:33.614Z,9.07
2018-12-27T08:56:11.372Z,9.10
2018-12-27T08:58:42.548Z,10.10
2018-12-27T09:01:12.938Z,11.53
2018-12-27T09:03:43.258Z,9.27
2018-12-27T09:06:14.420Z,10.63
2018-12-27T09:08:44.801Z,9.17
2018-12-27T09:11:15.178Z,9.17
2018-12-27T09:13:45.897Z,10.10
2018-12-27T09:16:16.271Z,9.20
2018-12-27T09:18:50.685Z,10.70
2018-12-27T09:21:23.248Z,10.10
2018-12-27T09:23:53.633Z,17.70
2018-12-27T09:26:24.012Z,14.03
2018-12-27T09:28:54.707Z,11.37
2018-12-27T09:31:25.853Z,10.07
2018-12-27T09:33:56.998Z,13.10
2018-12-27T09:36:27.391Z,15.97
2018-12-27T09:38:58.070Z,12.87
2018-12-27T09:41:28.438Z,11.47
2018-12-27T09:43:59.879Z,11.40
2018-12-27T09:46:36.395Z,11.97
2018-12-27T09:49:06.801Z,10.47
2018-12-27T09:51:37.183Z,11.53
2018-12-27T09:54:07.623Z,8.83
2018-12-27T09:56:37.960Z,10.73
2018-12-27T09:59:27.718Z,9.53
2018-12-27T10:01:58.729Z,11.20
2018-12-27T10:04:29.112Z,9.40
2018-12-27T10:06:59.430Z,9.23
2018-12-27T10:09:32.894Z,10.27
2018-12-27T10:12:03.283Z,10.07
2018-12-27T10:14:34.677Z,14.07
2018-12-27T10:17:05.085Z,10.07
2018-12-27T10:19:36.227Z,10.97
2018-12-27T10:22:07.591Z,9.80
2018-12-27T10:24:37.996Z,10.50
2018-12-27T10:27:09.142Z,10.17
2018-12-27T10:29:40.280Z,9.00
2018-12-27T10:32:10.875Z,9.27
2018-12-27T10:35:02.686Z,10.70
2018-12-27T10:37:33.030Z,8.43
2018-12-27T10:40:03.630Z,8.90
2018-12-27T10:42:34.005Z,9.13
2018-12-27T10:45:05.691Z,8.17
2018-12-27T10:47:37.853Z,9.63
2018-12-27T10:50:08.950Z,9.13
2018-12-27T10:52:39.359Z,9.77
2018-12-27T10:55:09.732Z,9.20
2018-12-27T10:57:40.110Z,9.47
2018-12-27T11:00:13.309Z,9.40
2018-12-27T11:02:43.916Z,9.23
2018-12-27T11:05:14.297Z,10.20
2018-12-27T11:07:44.701Z,11.13
2018-12-27T11:10:17.362Z,10.23
2018-12-27T11:12:47.758Z,9.43
2018-12-27T11:15:18.861Z,9.93
2018-12-27T11:18:09.822Z,10.37
2018-12-27T11:20:40.978Z,10.90
2018-12-27T11:23:11.362Z,9.87
2018-12-27T11:25:42.762Z,9.03
2018-12-27T11:28:13.163Z,8.97
2018-12-27T11:30:44.517Z,9.03
2018-12-27T11:35:56.565Z,8.70
2018-12-27T11:38:26.885Z,9.03
2018-12-27T11:40:57.272Z,9.37
2018-12-27T11:43:27.615Z,9.00
2018-12-27T11:45:57.930Z,9.03
2018-12-27T11:48:28.244Z,9.17
2018-12-27T11:50:58.644Z,9.73
2018-12-27T11:53:29.030Z,8.90
2018-12-27T11:55:59.641Z,8.87
2018-12-27T11:58:32.396Z,9.03
2018-12-27T12:01:03.060Z,8.00
2018-12-27T12:03:33.444Z,9.53
2018-12-27T12:06:03.844Z,9.17
2018-12-27T12:08:34.167Z,9.00
2018-12-27T12:11:04.550Z,8.60
2018-12-27T12:13:35.718Z,8.60
2018-12-27T12:16:06.091Z,9.23
2018-12-27T12:18:36.663Z,9.47
2018-12-27T12:21:07.836Z,9.33
2018-12-27T12:23:38.214Z,9.47
2018-12-27T12:26:08.599Z,8.87
2018-12-27T12:28:39.005Z,9.07
2018-12-27T12:31:09.373Z,8.60
2018-12-27T12:33:39.942Z,9.17
2018-12-27T12:36:10.961Z,9.57
2018-12-27T12:38:40.652Z,9.43
2018-12-27T12:41:11.031Z,9.73
2018-12-27T12:43:42.148Z,10.40
2018-12-27T12:46:12.537Z,10.83
2018-12-27T12:48:43.930Z,11.33
2018-12-27T12:51:15.099Z,9.90
2018-12-27T12:53:45.487Z,9.20
2018-12-27T12:56:15.856Z,10.70
2018-12-27T12:58:46.274Z,10.40
2018-12-27T13:01:16.838Z,10.30
2018-12-27T13:03:53.375Z,10.70
2018-12-27T13:06:24.514Z,10.53
2018-12-27T13:08:55.666Z,11.53
2018-12-27T13:11:26.057Z,10.73
2018-12-27T13:13:56.385Z,13.37
2018-12-27T13:16:26.758Z,12.17
2018-12-27T13:18:57.371Z,10.70
2018-12-27T13:21:28.507Z,10.53
2018-12-27T13:23:59.650Z,10.33
2018-12-27T13:26:31.455Z,11.60
2018-12-27T13:29:09.152Z,11.33
2018-12-27T13:31:46.814Z,10.80
2018-12-27T13:34:17.439Z,10.90
2018-12-27T13:36:48.585Z,11.30
2018-12-27T13:39:19.702Z,11.20
2018-12-27T13:41:50.083Z,11.37
2018-12-27T13:44:20.781Z,13.30
2018-12-27T13:46:51.947Z,11.43
2018-12-27T13:49:22.331Z,12.27
2018-12-27T13:51:52.718Z,10.77
2018-12-27T13:54:27.233Z,11.40
2018-12-27T13:56:57.604Z,11.50
2018-12-27T13:59:30.312Z,11.00
2018-12-27T14:02:01.477Z,12.50
2018-12-27T14:04:31.853Z,12.77
2018-12-27T14:07:02.227Z,12.00
2018-12-27T14:09:32.644Z,12.67
2018-12-27T14:12:02.964Z,11.73
2018-12-27T14:14:33.292Z,12.47
2018-12-27T14:17:03.700Z,12.30
2018-12-27T14:19:34.086Z,12.53
2018-12-27T14:22:25.915Z,12.00
2018-12-27T14:25:00.378Z,12.37
2018-12-27T14:27:31.033Z,12.17
2018-12-27T14:30:01.412Z,11.83
2018-12-27T14:32:31.788Z,12.37
2018-12-27T14:35:02.192Z,11.97
2018-12-27T14:37:33.346Z,12.93
2018-12-27T14:40:04.482Z,13.53
2018-12-27T14:42:35.666Z,13.80
2018-12-27T14:45:08.084Z,13.87
2018-12-27T14:47:38.461Z,12.87
2018-12-27T14:50:08.857Z,13.17
2018-12-27T14:52:39.239Z,11.63
2018-12-27T14:55:09.637Z,12.80
2018-12-27T14:57:40.045Z,12.47
2018-12-27T15:00:10.421Z,12.37
2018-12-27T15:02:41.772Z,12.47
2018-12-27T15:05:16.264Z,12.63
2018-12-27T15:07:46.640Z,12.83
2018-12-27T15:10:17.022Z,13.50
2018-12-27T15:12:49.866Z,12.40
2018-12-27T15:15:21.226Z,13.67
2018-12-27T15:17:52.377Z,14.30
2018-12-27T15:20:23.014Z,12.97
2018-12-27T15:22:53.391Z,13.40
2018-12-27T15:25:23.767Z,12.83
2018-12-27T15:27:54.175Z,14.13
2018-12-27T15:30:25.323Z,13.53
2018-12-27T15:32:55.706Z,14.63
2018-12-27T15:35:26.104Z,15.03
2018-12-27T15:37:56.480Z,12.60
2018-12-27T15:40:26.858Z,13.47
2018-12-27T15:42:58.287Z,14.53
2018-12-27T15:45:28.674Z,13.17
2018-12-27T15:47:59.052Z,12.50
2018-12-27T15:50:29.465Z,11.67
2018-12-27T15:52:59.852Z,11.97
2018-12-27T15:58:14.723Z,12.07
2018-12-27T16:01:06.514Z,13.80
2018-12-27T16:03:36.923Z,11.83
2018-12-27T16:06:08.077Z,11.30
2018-12-27T16:08:39.220Z,12.27
2018-12-27T16:11:09.843Z,12.40
2018-12-27T16:13:40.240Z,10.87
2018-12-27T16:16:10.631Z,10.67
2018-12-27T16:18:41.044Z,10.70
2018-12-27T16:21:11.422Z,10.70
2018-12-27T16:23:43.820Z,10.47
2018-12-27T16:26:12.220Z,10.80
2018-12-27T16:28:42.545Z,12.23
2018-12-27T16:31:12.924Z,12.57
2018-12-27T16:33:43.654Z,11.70
2018-12-27T16:36:13.984Z,10.43
2018-12-27T16:38:44.366Z,11.50
2018-12-27T16:41:15.046Z,11.40
2018-12-27T16:43:46.060Z,11.73
2018-12-27T16:46:16.447Z,11.13
2018-12-27T16:48:47.627Z,11.70
2018-12-27T16:51:25.399Z,10.90
2018-12-27T16:53:55.791Z,8.93
2018-12-27T16:56:26.442Z,9.53
2018-12-27T16:58:57.586Z,9.90
2018-12-27T17:01:29.036Z,9.27
2018-12-27T17:04:00.189Z,10.03
2018-12-27T17:06:31.343Z,10.43
2018-12-27T17:09:02.403Z,10.33
2018-12-27T17:11:32.771Z,12.93
2018-12-27T17:14:03.144Z,12.00
2018-12-27T17:16:33.554Z,10.97
2018-12-27T17:19:04.701Z,11.33
2018-12-27T17:21:35.852Z,10.50
2018-12-27T17:24:07.136Z,21.83
2018-12-27T17:26:37.511Z,20.53
2018-12-27T17:29:08.659Z,12.23
2018-12-27T17:31:39.823Z,10.53
2018-12-27T17:34:10.205Z,11.37
2018-12-27T17:36:40.821Z,10.33
2018-12-27T17:39:11.995Z,10.57
2018-12-27T17:41:42.371Z,10.70
2018-12-27T17:44:14.800Z,11.73
2018-12-27T17:46:45.977Z,11.00
2018-12-27T17:49:16.577Z,10.40
2018-12-27T17:51:48.739Z,10.27
2018-12-27T17:54:19.940Z,9.83
2018-12-27T17:56:50.245Z,10.83
2018-12-27T17:59:20.630Z,11.13
2018-12-27T18:01:51.022Z,11.70
2018-12-27T18:04:41.800Z,10.67
2018-12-27T18:07:12.191Z,11.03
2018-12-27T18:09:42.574Z,12.90
2018-12-27T18:12:13.168Z,11.23
2018-12-27T18:14:45.306Z,11.63
2018-12-27T18:17:15.691Z,11.63
2018-12-27T18:19:48.120Z,12.73
2018-12-27T18:22:19.283Z,11.47
2018-12-27T18:24:49.660Z,12.07
2018-12-27T18:27:20.043Z,12.03
2018-12-27T18:29:50.454Z,11.80
2018-12-27T18:32:21.779Z,11.10
2018-12-27T18:34:52.157Z,10.60
2018-12-27T18:37:23.478Z,10.53
2018-12-27T18:39:54.624Z,9.83
2018-12-27T18:42:25.014Z,10.80
2018-12-27T18:44:55.432Z,11.50
2018-12-27T18:47:26.157Z,11.03
2018-12-27T18:49:57.568Z,10.73
2018-12-27T18:52:28.676Z,10.70
2018-12-27T18:55:01.101Z,10.57
2018-12-27T18:57:31.423Z,10.50
2018-12-27T19:00:01.870Z,10.17
2018-12-27T19:02:42.147Z,9.97
2018-12-27T19:05:09.958Z,10.77
2018-12-27T19:07:44.894Z,10.03
2018-12-27T19:10:11.826Z,9.07
2018-12-27T19:13:05.870Z,9.73
2018-12-27T19:18:23.647Z,8.70
2018-12-27T19:20:54.018Z,9.03
2018-12-27T19:23:26.447Z,9.97
2018-12-27T19:25:57.813Z,10.93
2018-12-27T19:28:28.961Z,10.00
2018-12-27T19:31:00.306Z,9.33
2018-12-27T19:33:31.475Z,9.50
2018-12-27T19:36:01.858Z,9.73
2018-12-27T19:38:32.506Z,10.77
2018-12-27T19:41:03.668Z,9.40
2018-12-27T19:43:34.050Z,9.57
2018-12-27T19:46:04.370Z,8.87
2018-12-27T19:48:34.720Z,9.90
2018-12-27T19:51:05.880Z,9.53
2018-12-27T19:53:36.966Z,8.57
2018-12-27T19:56:07.364Z,8.03
2018-12-27T19:58:37.738Z,8.47
2018-12-27T20:01:08.052Z,9.83
2018-12-27T20:03:38.725Z,9.60
2018-12-27T20:06:09.820Z,10.20
2018-12-27T20:09:02.623Z,9.30
2018-12-27T20:11:33.004Z,11.50
2018-12-27T20:14:03.382Z,10.63
2018-12-27T20:16:34.741Z,10.63
2018-12-27T20:19:05.060Z,9.97
2018-12-27T20:21:35.429Z,9.53
2018-12-27T20:24:06.865Z,9.57
2018-12-27T20:26:44.566Z,10.67
2018-12-27T20:29:37.150Z,10.20
2018-12-27T20:32:07.523Z,9.70
2018-12-27T20:34:37.904Z,11.07
2018-12-27T20:37:08.306Z,10.13
2018-12-27T20:39:38.973Z,9.97
2018-12-27T20:42:09.354Z,10.57
2018-12-27T20:44:45.886Z,10.67
2018-12-27T20:47:17.030Z,10.73
2018-12-27T20:49:47.652Z,10.10
2018-12-27T20:52:18.053Z,10.10
2018-12-27T20:54:48.373Z,11.60
2018-12-27T20:57:18.745Z,10.30
2018-12-27T20:59:49.858Z,11.70
2018-12-27T21:02:21.001Z,10.43
2018-12-27T21:04:51.375Z,10.23
2018-12-27T21:07:21.770Z,10.07
2018-12-27T21:09:52.910Z,10.93
2018-12-27T21:12:24.048Z,10.20
2018-12-27T21:14:55.231Z,11.97
2018-12-27T21:17:25.835Z,11.67
2018-12-27T21:19:56.977Z,12.80
2018-12-27T21:22:28.093Z,11.53
2018-12-27T21:24:58.759Z,10.17
2018-12-27T21:27:30.929Z,9.93
2018-12-27T21:30:02.097Z,11.03
2018-12-27T21:32:32.482Z,11.27
2018-12-27T21:35:02.865Z,9.90
2018-12-27T21:37:55.448Z,11.93
2018-12-27T21:40:25.768Z,11.57
2018-12-27T21:42:56.138Z,10.30
2018-12-27T21:45:26.549Z,10.37
2018-12-27T21:47:58.914Z,10.53
2018-12-27T21:50:30.056Z,11.70
2018-12-27T21:53:01.221Z,9.60
2018-12-27T21:55:31.595Z,10.83
2018-12-27T21:58:01.978Z,10.10
2018-12-27T22:00:32.708Z,9.73
2018-12-27T22:03:03.036Z,10.07
2018-12-27T22:05:33.414Z,9.80
2018-12-27T22:08:04.073Z,10.87
2018-12-27T22:10:35.224Z,10.93
2018-12-27T22:13:05.551Z,10.47
2018-12-27T22:15:35.959Z,10.80
2018-12-27T22:18:07.111Z,10.40
2018-12-27T22:20:37.495Z,10.10
2018-12-27T22:23:29.618Z,10.67
2018-12-27T22:26:19.111Z,10.13
2018-12-27T22:28:49.852Z,10.90
2018-12-27T22:31:20.925Z,10.87
2018-12-27T22:33:52.066Z,10.87
2018-12-27T22:36:23.488Z,10.73
2018-12-27T22:38:53.875Z,10.97
2018-12-27T22:41:25.278Z,11.43
2018-12-27T22:43:55.669Z,11.13
2018-12-27T22:46:30.143Z,11.10
2018-12-27T22:49:01.309Z,11.03
2018-12-27T22:51:32.025Z,10.90
2018-12-27T22:54:03.172Z,11.87
2018-12-27T22:56:33.541Z,10.93
2018-12-27T22:59:03.955Z,10.90
2018-12-27T23:01:35.362Z,10.80
2018-12-27T23:04:05.746Z,10.20
2018-12-27T23:06:55.467Z,11.63
2018-12-27T23:09:26.034Z,11.27
2018-12-27T23:11:56.409Z,12.30
2018-12-27T23:14:26.819Z,11.57
2018-12-27T23:17:16.560Z,12.10
2018-12-27T23:19:46.958Z,12.30
2018-12-27T23:22:17.516Z,12.37
2018-12-27T23:24:47.896Z,11.33
2018-12-27T23:27:18.305Z,11.40
2018-12-27T23:29:48.692Z,11.40
2018-12-27T23:32:19.062Z,11.47
2018-12-27T23:34:49.413Z,11.43
2018-12-27T23:37:19.802Z,12.00
2018-12-27T23:42:40.042Z,11.17
2018-12-27T23:45:10.430Z,11.07
2018-12-27T23:47:43.903Z,11.53
2018-12-27T23:50:15.061Z,10.90
2018-12-27T23:52:45.422Z,10.63
2018-12-27T23:55:15.805Z,11.33
2018-12-27T23:57:46.221Z,11.13
